Terminal Aerodrome Forecast
Issued by NWS

Home | Current Version | Previous Version | Text Only | Print | Product List | Glossary On
Versions: 1 2 3 4 5 6 7 8 9 10 11 12 13 14
000
FTUS46 KSTO 242337
TAFMHR
TAF
KMHR 242337Z 2500/2524 20010KT P6SM SCT030 OVC050
     FM250500 16010KT P6SM OVC100
      TEMPO 2512/2515 OVC035
     FM251500 31009KT P6SM OVC100=

USA.gov is the U.S. government's official web portal to all federal, state and local government web resources and services.